Terminal Aerodrome Forecast
Issued by NWS Cleveland, OH

Home | Current Version | Previous Version | Text Only | Print | Product List | Glossary Off
Versions: 1 2 3 4 5 6 7 8 9 10 11 12 13

000
FTUS41 KCLE 160500
TAFCAK
TAF
KCAK 160520Z 1606/1706 30006KT P6SM SCT030 BKN060
     FM161200 08004KT P6SM SCT250
     FM161600 10007KT P6SM SCT250
     FM170300 08008KT P6SM BKN250=

USA.gov is the U.S. government's official web portal to all federal, state and local government web resources and services.